createdAt,value
2018-04-30T00:01:36.353Z,18.15
2018-04-30T00:04:03.835Z,18.12
2018-04-30T00:06:31.318Z,18.10
2018-04-30T00:08:58.777Z,18.13
2018-04-30T00:11:26.748Z,18.08
2018-04-30T00:13:54.227Z,17.99
2018-04-30T00:16:21.702Z,17.96
2018-04-30T00:18:49.149Z,17.89
2018-04-30T00:21:16.602Z,17.84
2018-04-30T00:23:44.074Z,17.79
2018-04-30T00:26:11.584Z,17.75
2018-04-30T00:28:39.714Z,17.68
2018-04-30T00:31:07.177Z,17.66
2018-04-30T00:33:34.660Z,17.69
2018-04-30T00:36:02.119Z,17.69
2018-04-30T00:38:29.590Z,17.67
2018-04-30T00:40:57.070Z,17.69
2018-04-30T00:43:24.529Z,17.67
2018-04-30T00:45:52.075Z,17.76
2018-04-30T00:48:19.575Z,17.80
2018-04-30T00:50:47.058Z,17.79
2018-04-30T00:53:14.574Z,17.81
2018-04-30T00:55:42.033Z,17.81
2018-04-30T00:58:09.634Z,17.78
2018-04-30T01:00:37.257Z,17.90
2018-04-30T01:03:04.725Z,17.91
2018-04-30T01:05:32.195Z,17.97
2018-04-30T01:07:59.681Z,17.91
2018-04-30T01:10:27.141Z,17.81
2018-04-30T01:12:54.625Z,17.78
2018-04-30T01:15:22.100Z,17.80
2018-04-30T01:17:49.557Z,17.78
2018-04-30T01:20:17.016Z,17.83
2018-04-30T01:22:44.502Z,17.76
2018-04-30T01:25:11.964Z,17.69
2018-04-30T01:27:39.422Z,17.67
2018-04-30T01:30:06.905Z,17.70
2018-04-30T01:32:34.366Z,17.64
2018-04-30T01:35:01.890Z,17.62
2018-04-30T01:37:29.349Z,17.68
2018-04-30T01:39:56.827Z,17.67
2018-04-30T01:42:24.311Z,17.68
2018-04-30T01:44:51.797Z,17.60
2018-04-30T01:47:19.254Z,17.43
2018-04-30T01:49:46.722Z,17.36
2018-04-30T01:52:14.182Z,17.39
2018-04-30T01:54:41.697Z,17.32
2018-04-30T01:57:09.241Z,17.32
2018-04-30T01:59:36.694Z,17.27
2018-04-30T02:02:04.220Z,17.25
2018-04-30T02:04:31.842Z,17.23
2018-04-30T02:06:59.333Z,17.16
2018-04-30T02:09:26.789Z,17.17
2018-04-30T02:11:54.328Z,17.20
2018-04-30T02:14:21.870Z,17.20
2018-04-30T02:16:49.342Z,17.25
2018-04-30T02:19:16.860Z,17.21
2018-04-30T02:21:44.318Z,17.15
2018-04-30T02:24:11.817Z,17.07
2018-04-30T02:26:39.261Z,17.03
2018-04-30T02:29:06.770Z,17.00
2018-04-30T02:31:34.247Z,16.93
2018-04-30T02:34:01.738Z,16.93
2018-04-30T02:36:29.202Z,16.89
2018-04-30T02:38:56.687Z,16.88
2018-04-30T02:41:24.143Z,16.85
2018-04-30T02:43:51.598Z,16.90
2018-04-30T02:46:19.066Z,16.97
2018-04-30T02:48:46.526Z,16.98
2018-04-30T02:51:14.041Z,17.04
2018-04-30T02:53:41.512Z,17.00
2018-04-30T02:56:08.966Z,17.03
2018-04-30T02:58:36.438Z,17.04
2018-04-30T03:01:04.018Z,17.03
2018-04-30T03:03:31.425Z,17.00
2018-04-30T03:05:58.878Z,16.90
2018-04-30T03:08:26.357Z,16.88
2018-04-30T03:10:53.823Z,16.87
2018-04-30T03:13:21.324Z,16.89
2018-04-30T03:15:48.796Z,16.81
2018-04-30T03:18:16.270Z,16.72
2018-04-30T03:20:43.732Z,16.72
2018-04-30T03:23:11.177Z,16.69
2018-04-30T03:25:38.641Z,16.69
2018-04-30T03:28:06.126Z,16.86
2018-04-30T03:30:33.600Z,16.87
2018-04-30T03:33:01.069Z,17.00
2018-04-30T03:35:28.526Z,17.00
2018-04-30T03:37:56.025Z,17.08
2018-04-30T03:40:23.477Z,17.14
2018-04-30T03:42:50.926Z,17.16
2018-04-30T03:45:18.406Z,17.13
2018-04-30T03:47:45.873Z,17.12
2018-04-30T03:50:13.418Z,17.14
2018-04-30T03:52:40.875Z,17.14
2018-04-30T03:55:08.343Z,17.18
2018-04-30T03:57:35.803Z,17.29
2018-04-30T04:00:03.270Z,17.26
2018-04-30T04:05:51.478Z,17.37
2018-04-30T04:08:18.961Z,17.46
2018-04-30T04:10:46.415Z,17.55
2018-04-30T04:13:13.874Z,17.61
2018-04-30T04:15:41.366Z,17.65
2018-04-30T04:18:08.823Z,17.69
2018-04-30T04:20:36.288Z,17.77
2018-04-30T04:23:03.763Z,17.80
2018-04-30T04:25:31.259Z,17.91
2018-04-30T04:27:58.757Z,18.02
2018-04-30T04:30:26.234Z,18.17
2018-04-30T04:32:53.701Z,18.35
2018-04-30T04:35:21.187Z,18.41
2018-04-30T04:37:48.655Z,18.61
2018-04-30T04:40:16.151Z,18.70
2018-04-30T04:42:43.664Z,18.86
2018-04-30T04:45:11.152Z,19.01
2018-04-30T04:47:38.634Z,19.12
2018-04-30T04:50:06.166Z,19.28
2018-04-30T04:52:33.710Z,19.32
2018-04-30T04:55:01.192Z,19.34
2018-04-30T05:00:01.486Z,19.60
2018-04-30T05:02:28.968Z,19.73
2018-04-30T05:04:56.460Z,19.80
2018-04-30T05:07:23.951Z,19.90
2018-04-30T05:09:51.407Z,19.97
2018-04-30T05:12:18.873Z,20.03
2018-04-30T05:14:46.374Z,20.07
2018-04-30T05:17:13.918Z,20.04
2018-04-30T05:19:42.123Z,20.11
2018-04-30T05:22:09.605Z,20.06
2018-04-30T05:24:37.081Z,20.02
2018-04-30T05:27:04.540Z,19.93
2018-04-30T05:29:32.384Z,19.95
2018-04-30T05:31:59.880Z,19.88
2018-04-30T05:34:27.408Z,19.93
2018-04-30T05:36:54.875Z,19.88
2018-04-30T05:39:22.371Z,19.88
2018-04-30T05:41:50.134Z,19.94
2018-04-30T05:44:17.627Z,20.04
2018-04-30T05:46:45.121Z,20.09
2018-04-30T05:49:12.605Z,20.27
2018-04-30T05:51:40.064Z,20.36
2018-04-30T05:54:07.546Z,20.54
2018-04-30T05:56:35.010Z,20.74
2018-04-30T05:59:02.552Z,21.05
2018-04-30T06:01:30.003Z,21.30
2018-04-30T06:03:57.459Z,21.41
2018-04-30T06:06:24.935Z,21.60
2018-04-30T06:08:52.416Z,21.79
2018-04-30T06:11:19.892Z,21.91
2018-04-30T06:13:47.406Z,22.06
2018-04-30T06:16:14.882Z,22.15
2018-04-30T06:18:42.391Z,22.16
2018-04-30T06:21:09.911Z,22.16
2018-04-30T06:23:37.451Z,22.13
2018-04-30T06:26:04.982Z,22.25
2018-04-30T06:28:32.445Z,22.27
2018-04-30T06:30:59.917Z,22.29
2018-04-30T06:33:27.457Z,22.30
2018-04-30T06:35:54.999Z,22.40
2018-04-30T06:38:22.413Z,22.49
2018-04-30T06:40:49.892Z,22.57
2018-04-30T06:43:17.369Z,22.67
2018-04-30T06:45:44.848Z,22.74
2018-04-30T06:48:12.336Z,22.95
2018-04-30T06:50:39.822Z,22.95
2018-04-30T06:53:07.302Z,23.09
2018-04-30T06:55:34.760Z,23.15
2018-04-30T06:58:02.282Z,23.30
2018-04-30T07:00:29.749Z,23.38
2018-04-30T07:02:57.224Z,23.57
2018-04-30T07:05:24.735Z,23.78
2018-04-30T07:07:52.346Z,23.84
2018-04-30T07:10:19.802Z,23.96
2018-04-30T07:12:47.259Z,24.06
2018-04-30T07:15:14.730Z,24.17
2018-04-30T07:17:42.233Z,24.34
2018-04-30T07:20:09.770Z,24.53
2018-04-30T07:22:37.170Z,24.65
2018-04-30T07:25:04.700Z,24.94
2018-04-30T07:27:32.208Z,25.03
2018-04-30T07:29:59.697Z,25.08
2018-04-30T07:32:27.154Z,24.95
2018-04-30T07:34:54.614Z,25.20
2018-04-30T07:37:22.137Z,25.30
2018-04-30T07:39:49.618Z,25.30
2018-04-30T07:42:17.099Z,25.39
2018-04-30T07:44:44.565Z,25.67
2018-04-30T07:47:12.033Z,25.88
2018-04-30T07:49:39.488Z,26.27
2018-04-30T07:52:06.979Z,26.33
2018-04-30T07:54:34.503Z,26.32
2018-04-30T07:57:01.905Z,26.27
2018-04-30T07:59:29.407Z,26.26
2018-04-30T08:01:56.866Z,26.17
2018-04-30T08:04:24.342Z,26.25
2018-04-30T08:06:51.826Z,26.35
2018-04-30T08:09:19.284Z,26.39
2018-04-30T08:11:46.781Z,26.52
2018-04-30T08:14:14.226Z,26.44
2018-04-30T08:16:41.774Z,26.58
2018-04-30T08:19:09.269Z,26.76
2018-04-30T08:21:37.062Z,26.89
2018-04-30T08:24:04.483Z,26.84
2018-04-30T08:26:31.972Z,26.84
2018-04-30T08:28:59.454Z,26.76
2018-04-30T08:31:27.369Z,26.87
2018-04-30T08:33:54.864Z,26.78
2018-04-30T08:36:22.401Z,26.79
2018-04-30T08:38:49.881Z,26.80
2018-04-30T08:41:17.374Z,26.85
2018-04-30T08:43:45.112Z,26.86
2018-04-30T08:46:13.176Z,26.84
2018-04-30T08:48:40.708Z,26.98
2018-04-30T08:51:08.226Z,27.02
2018-04-30T08:53:35.690Z,27.08
2018-04-30T08:56:03.150Z,27.00
2018-04-30T08:58:30.618Z,26.78
2018-04-30T09:00:58.079Z,26.76
2018-04-30T09:03:25.649Z,26.74
2018-04-30T09:05:53.176Z,26.70
2018-04-30T09:08:20.646Z,26.77
2018-04-30T09:10:48.376Z,26.65
2018-04-30T09:13:15.850Z,26.68
2018-04-30T09:15:43.325Z,26.77
2018-04-30T09:18:10.835Z,26.96
2018-04-30T09:20:38.324Z,27.15
2018-04-30T09:23:05.793Z,27.13
2018-04-30T09:25:34.754Z,27.17
2018-04-30T09:28:02.323Z,27.22
2018-04-30T09:30:29.803Z,27.22
2018-04-30T09:32:57.293Z,27.07
2018-04-30T09:35:25.601Z,27.36
2018-04-30T09:37:53.106Z,27.38
2018-04-30T09:40:20.612Z,27.48
2018-04-30T09:42:48.340Z,27.47
2018-04-30T09:45:15.859Z,27.70
2018-04-30T09:47:43.330Z,27.84
2018-04-30T09:50:10.806Z,27.84
2018-04-30T09:52:38.274Z,27.77
2018-04-30T09:55:05.752Z,27.99
2018-04-30T09:57:33.246Z,28.14
2018-04-30T10:00:00.708Z,27.82
2018-04-30T10:02:28.175Z,27.54
2018-04-30T10:04:55.686Z,27.58
2018-04-30T10:07:23.242Z,27.53
2018-04-30T10:09:50.691Z,27.64
2018-04-30T10:12:18.944Z,27.93
2018-04-30T10:14:46.423Z,27.88
2018-04-30T10:17:13.936Z,27.96
2018-04-30T10:19:41.444Z,28.03
2018-04-30T10:22:08.916Z,28.13
2018-04-30T10:24:36.406Z,28.32
2018-04-30T10:27:03.919Z,28.41
2018-04-30T10:29:31.430Z,28.60
2018-04-30T10:31:58.911Z,28.66
2018-04-30T10:34:26.411Z,28.78
2018-04-30T10:36:53.895Z,28.71
2018-04-30T10:39:21.415Z,28.70
2018-04-30T10:41:48.873Z,28.83
2018-04-30T10:44:16.576Z,28.77
2018-04-30T10:46:44.053Z,28.80
2018-04-30T10:49:11.544Z,28.78
2018-04-30T10:51:39.119Z,28.83
2018-04-30T10:54:06.575Z,28.91
2018-04-30T10:56:34.060Z,28.98
2018-04-30T10:59:01.553Z,29.02
2018-04-30T11:01:29.041Z,29.08
2018-04-30T11:03:56.518Z,29.14
2018-04-30T11:06:24.061Z,29.25
2018-04-30T11:08:51.524Z,29.29
2018-04-30T11:11:18.988Z,29.21
2018-04-30T11:13:46.457Z,29.21
2018-04-30T11:16:14.143Z,29.34
2018-04-30T11:18:41.619Z,29.23
2018-04-30T11:21:09.102Z,29.17
2018-04-30T11:23:36.653Z,29.41
2018-04-30T11:26:04.727Z,29.68
2018-04-30T11:28:32.203Z,29.87
2018-04-30T11:30:59.718Z,30.07
2018-04-30T11:33:27.219Z,30.43
2018-04-30T11:35:54.752Z,30.57
2018-04-30T11:38:22.283Z,30.76
2018-04-30T11:40:49.796Z,30.69
2018-04-30T11:43:17.304Z,30.75
2018-04-30T11:45:45.466Z,30.71
2018-04-30T11:48:12.975Z,30.08
2018-04-30T11:50:40.471Z,29.55
2018-04-30T11:53:07.983Z,29.09
2018-04-30T11:55:35.474Z,28.56
2018-04-30T11:58:03.000Z,28.30
2018-04-30T12:00:30.452Z,28.51
2018-04-30T12:02:57.949Z,28.39
2018-04-30T12:05:25.438Z,28.69
2018-04-30T12:07:52.938Z,28.80
2018-04-30T12:10:20.455Z,28.81
2018-04-30T12:12:47.948Z,28.84
2018-04-30T12:15:15.458Z,29.03
2018-04-30T12:17:42.934Z,29.00
2018-04-30T12:20:10.429Z,28.87
2018-04-30T12:22:37.902Z,28.72
2018-04-30T12:25:05.465Z,28.51
2018-04-30T12:27:32.931Z,28.33
2018-04-30T12:30:00.419Z,28.23
2018-04-30T12:32:28.515Z,28.49
2018-04-30T12:34:55.987Z,29.07
2018-04-30T12:37:23.530Z,29.48
2018-04-30T12:39:51.205Z,29.95
2018-04-30T12:42:18.695Z,30.19
2018-04-30T12:44:46.216Z,30.33
2018-04-30T12:47:13.712Z,30.45
2018-04-30T12:49:41.234Z,29.90
2018-04-30T12:52:08.698Z,29.79
2018-04-30T12:54:36.161Z,30.15
2018-04-30T12:57:03.640Z,30.14
2018-04-30T12:59:31.166Z,30.56
2018-04-30T13:01:58.633Z,30.53
2018-04-30T13:04:26.098Z,30.52
2018-04-30T13:06:53.587Z,30.61
2018-04-30T13:09:21.153Z,30.43
2018-04-30T13:11:48.638Z,30.75
2018-04-30T13:14:16.131Z,31.52
2018-04-30T13:16:43.619Z,32.26
2018-04-30T13:19:11.125Z,32.59
2018-04-30T13:21:38.601Z,32.21
2018-04-30T13:24:06.104Z,31.83
2018-04-30T13:26:34.074Z,32.03
2018-04-30T13:29:01.563Z,32.48
2018-04-30T13:31:29.060Z,33.24
2018-04-30T13:33:56.531Z,33.06
2018-04-30T13:36:23.986Z,32.83
2018-04-30T13:38:51.452Z,32.87
2018-04-30T13:41:18.938Z,32.92
2018-04-30T13:43:46.475Z,33.07
2018-04-30T13:46:13.932Z,33.46
2018-04-30T13:48:41.415Z,33.54
2018-04-30T13:51:08.922Z,33.63
2018-04-30T13:53:36.407Z,33.69
2018-04-30T13:56:03.909Z,33.72
2018-04-30T13:58:31.434Z,33.73
2018-04-30T14:00:58.939Z,33.46
2018-04-30T14:03:26.410Z,33.73
2018-04-30T14:05:53.878Z,34.24
2018-04-30T14:08:21.337Z,34.73
2018-04-30T14:10:48.844Z,35.39
2018-04-30T14:13:16.363Z,35.37
2018-04-30T14:15:43.847Z,35.80
2018-04-30T14:18:11.324Z,35.90
2018-04-30T14:20:38.830Z,36.46
2018-04-30T14:23:06.347Z,36.73
2018-04-30T14:25:33.824Z,36.59
2018-04-30T14:28:01.300Z,36.85
2018-04-30T14:30:28.867Z,37.40
2018-04-30T14:32:56.416Z,37.32
2018-04-30T14:35:23.907Z,37.58
2018-04-30T14:37:51.402Z,37.21
2018-04-30T14:40:18.886Z,37.76
2018-04-30T14:42:46.439Z,38.11
2018-04-30T14:45:13.904Z,38.69
2018-04-30T14:47:41.387Z,38.22
2018-04-30T14:50:08.859Z,37.81
2018-04-30T14:52:36.330Z,38.34
2018-04-30T14:55:03.896Z,38.50
2018-04-30T14:57:31.383Z,37.99
2018-04-30T14:59:58.904Z,38.65
2018-04-30T15:02:26.398Z,38.31
2018-04-30T15:04:53.887Z,38.23
2018-04-30T15:07:21.367Z,38.59
2018-04-30T15:09:48.847Z,38.62
2018-04-30T15:12:16.332Z,38.23
2018-04-30T15:14:43.819Z,38.86
2018-04-30T15:17:11.285Z,39.44
2018-04-30T15:19:38.845Z,39.12
2018-04-30T15:22:06.343Z,39.15
2018-04-30T15:24:33.874Z,38.62
2018-04-30T15:27:01.374Z,39.00
2018-04-30T15:29:28.858Z,38.79
2018-04-30T15:31:56.351Z,38.79
2018-04-30T15:34:23.827Z,38.26
2018-04-30T15:36:51.464Z,38.26
2018-04-30T15:39:18.911Z,37.87
2018-04-30T15:41:46.379Z,37.38
2018-04-30T15:44:13.853Z,37.21
2018-04-30T15:46:41.344Z,37.31
2018-04-30T15:49:08.861Z,37.49
2018-04-30T15:51:36.347Z,37.57
2018-04-30T15:54:03.831Z,37.84
2018-04-30T15:56:31.364Z,36.86
2018-04-30T15:58:58.847Z,37.57
2018-04-30T16:01:26.415Z,37.77
2018-04-30T16:03:53.808Z,38.20
2018-04-30T16:06:21.277Z,37.42
2018-04-30T16:08:48.802Z,37.42
2018-04-30T16:11:16.278Z,37.44
2018-04-30T16:13:43.796Z,38.00
2018-04-30T16:16:11.283Z,38.19
2018-04-30T16:18:38.766Z,37.79
2018-04-30T16:21:06.245Z,38.16
2018-04-30T16:23:33.711Z,38.08
2018-04-30T16:26:01.158Z,37.94
2018-04-30T16:28:28.643Z,38.03
2018-04-30T16:30:56.280Z,37.99
2018-04-30T16:33:23.750Z,36.89
2018-04-30T16:35:51.369Z,36.71
2018-04-30T16:38:18.881Z,36.84
2018-04-30T16:40:46.413Z,37.26
2018-04-30T16:43:13.943Z,36.19
2018-04-30T16:45:41.396Z,35.98
2018-04-30T16:48:08.896Z,36.43
2018-04-30T16:50:36.358Z,35.40
2018-04-30T16:53:03.871Z,35.53
2018-04-30T16:55:31.351Z,35.63
2018-04-30T16:57:58.805Z,34.85
2018-04-30T17:00:26.347Z,34.44
2018-04-30T17:02:53.897Z,34.28
2018-04-30T17:05:21.334Z,33.69
2018-04-30T17:07:48.832Z,34.06
2018-04-30T17:10:16.304Z,33.76
2018-04-30T17:12:43.779Z,33.26
2018-04-30T17:15:11.297Z,32.61
2018-04-30T17:17:38.767Z,32.33
2018-04-30T17:20:06.237Z,32.57
2018-04-30T17:22:33.791Z,31.74
2018-04-30T17:25:01.276Z,31.41
2018-04-30T17:27:28.756Z,31.20
2018-04-30T17:29:56.277Z,30.81
2018-04-30T17:32:23.751Z,29.93
2018-04-30T17:34:51.260Z,28.73
2018-04-30T17:37:18.774Z,27.80
2018-04-30T17:39:46.282Z,27.37
2018-04-30T17:42:13.765Z,26.86
2018-04-30T17:44:41.283Z,26.34
2018-04-30T17:47:08.802Z,25.87
2018-04-30T17:49:36.285Z,25.55
2018-04-30T17:52:03.753Z,25.07
2018-04-30T17:54:31.254Z,24.91
2018-04-30T17:56:58.731Z,24.69
2018-04-30T17:59:26.194Z,24.43
2018-04-30T18:01:53.662Z,24.20
2018-04-30T18:04:21.146Z,24.05
2018-04-30T18:06:48.660Z,23.84
2018-04-30T18:09:16.126Z,23.68
2018-04-30T18:11:43.600Z,23.50
2018-04-30T18:14:11.174Z,23.29
2018-04-30T18:16:38.685Z,23.15
2018-04-30T18:19:06.189Z,23.02
2018-04-30T18:21:33.706Z,22.94
2018-04-30T18:24:01.170Z,22.82
2018-04-30T18:26:28.691Z,22.77
2018-04-30T18:28:56.122Z,22.66
2018-04-30T18:31:23.602Z,22.54
2018-04-30T18:33:51.099Z,22.46
2018-04-30T18:36:18.570Z,22.43
2018-04-30T18:38:46.155Z,22.28
2018-04-30T18:41:13.584Z,22.16
2018-04-30T18:43:41.048Z,22.04
2018-04-30T18:46:08.569Z,21.99
2018-04-30T18:48:36.136Z,21.89
2018-04-30T18:51:03.625Z,21.83
2018-04-30T18:53:31.106Z,21.77
2018-04-30T18:55:58.582Z,21.63
2018-04-30T18:58:26.090Z,21.65
2018-04-30T19:00:53.595Z,21.61
2018-04-30T19:03:21.058Z,21.50
2018-04-30T19:05:48.567Z,21.46
2018-04-30T19:08:16.075Z,21.42
2018-04-30T19:10:43.557Z,21.37
2018-04-30T19:13:11.075Z,21.37
2018-04-30T19:15:38.583Z,21.33
2018-04-30T19:18:06.120Z,21.25
2018-04-30T19:20:33.619Z,21.17
2018-04-30T19:23:01.115Z,21.18
2018-04-30T19:25:28.584Z,21.09
2018-04-30T19:27:56.070Z,21.03
2018-04-30T19:30:23.554Z,20.97
2018-04-30T19:32:51.032Z,20.86
2018-04-30T19:35:18.522Z,20.80
2018-04-30T19:37:46.006Z,20.80
2018-04-30T19:40:13.488Z,20.75
2018-04-30T19:42:40.965Z,20.70
2018-04-30T19:45:08.487Z,20.58
2018-04-30T19:47:35.962Z,20.45
2018-04-30T19:50:03.472Z,20.40
2018-04-30T19:52:30.988Z,20.33
2018-04-30T19:54:58.441Z,20.24
2018-04-30T19:57:25.915Z,20.05
2018-04-30T19:59:53.379Z,20.00
2018-04-30T20:02:20.898Z,19.98
2018-04-30T20:04:48.436Z,19.95
2018-04-30T20:07:15.945Z,19.85
2018-04-30T20:09:43.376Z,19.87
2018-04-30T20:12:10.891Z,19.74
2018-04-30T20:14:38.431Z,19.74
2018-04-30T20:17:05.942Z,19.72
2018-04-30T20:19:33.415Z,19.66
2018-04-30T20:22:00.897Z,19.57
2018-04-30T20:24:28.360Z,19.45
2018-04-30T20:26:55.998Z,19.43
2018-04-30T20:29:24.556Z,19.39
2018-04-30T20:31:52.071Z,19.31
2018-04-30T20:34:19.553Z,19.34
2018-04-30T20:36:47.036Z,19.39
2018-04-30T20:39:14.565Z,19.42
2018-04-30T20:41:42.033Z,19.40
2018-04-30T20:44:09.504Z,19.35
2018-04-30T20:46:37.104Z,19.23
2018-04-30T20:49:04.620Z,19.20
2018-04-30T20:51:32.136Z,19.06
2018-04-30T20:53:59.636Z,18.99
2018-04-30T20:56:27.120Z,18.92
2018-04-30T20:58:54.628Z,18.85
2018-04-30T21:01:22.178Z,18.73
2018-04-30T21:03:49.662Z,18.60
2018-04-30T21:06:17.167Z,18.51
2018-04-30T21:08:56.365Z,18.56
2018-04-30T21:11:23.858Z,18.65
2018-04-30T21:13:51.378Z,18.71
2018-04-30T21:16:18.957Z,18.85
2018-04-30T21:18:47.325Z,18.76
2018-04-30T21:21:14.835Z,18.67
2018-04-30T21:23:42.334Z,18.78
2018-04-30T21:26:09.878Z,18.92
2018-04-30T21:28:37.367Z,18.73
2018-04-30T21:31:04.962Z,18.65
2018-04-30T21:33:32.442Z,18.56
2018-04-30T21:36:00.008Z,18.45
2018-04-30T21:38:27.760Z,18.35
2018-04-30T21:40:55.238Z,18.25
2018-04-30T21:43:22.759Z,18.11
2018-04-30T21:45:50.266Z,17.98
2018-04-30T21:48:17.750Z,17.85
2018-04-30T21:50:45.265Z,17.73
2018-04-30T21:53:12.845Z,17.70
2018-04-30T21:55:40.345Z,17.67
2018-04-30T21:58:09.793Z,17.61
2018-04-30T22:00:38.409Z,17.63
2018-04-30T22:03:05.975Z,17.65
2018-04-30T22:05:33.475Z,17.65
2018-04-30T22:08:00.944Z,17.68
2018-04-30T22:10:28.533Z,17.67
2018-04-30T22:12:56.099Z,17.67
2018-04-30T22:15:26.232Z,17.70
2018-04-30T22:17:53.753Z,17.60
2018-04-30T22:20:23.248Z,17.62
2018-04-30T22:22:50.812Z,17.56
2018-04-30T22:25:18.341Z,17.47
2018-04-30T22:27:46.592Z,17.43
2018-04-30T22:30:14.103Z,17.41
2018-04-30T22:32:42.365Z,17.41
2018-04-30T22:35:09.861Z,17.41
2018-04-30T22:37:37.383Z,17.47
2018-04-30T22:40:04.908Z,17.43
2018-04-30T22:42:32.409Z,17.37
2018-04-30T22:44:59.886Z,17.40
2018-04-30T22:47:27.367Z,17.39
2018-04-30T22:49:54.906Z,17.44
2018-04-30T22:52:22.501Z,17.36
2018-04-30T22:54:51.798Z,17.40
2018-04-30T22:57:19.313Z,17.42
2018-04-30T22:59:46.816Z,17.42
2018-04-30T23:11:55.413Z,17.27
2018-04-30T23:14:22.930Z,17.25
2018-04-30T23:16:50.475Z,17.20
2018-04-30T23:19:18.032Z,17.21
2018-04-30T23:21:46.884Z,17.18
2018-04-30T23:24:14.371Z,17.15
2018-04-30T23:26:41.907Z,17.17
2018-04-30T23:29:09.412Z,17.11
2018-04-30T23:31:39.438Z,17.10
2018-04-30T23:34:06.966Z,16.99
2018-04-30T23:36:34.552Z,17.00
2018-04-30T23:39:02.082Z,17.02
2018-04-30T23:41:29.550Z,16.99
2018-04-30T23:43:57.216Z,16.96
2018-04-30T23:46:24.679Z,16.94
2018-04-30T23:48:52.203Z,16.98
2018-04-30T23:51:19.684Z,16.96
2018-04-30T23:53:47.214Z,16.97
2018-04-30T23:56:14.711Z,16.87
2018-04-30T23:58:43.103Z,16.94
